OTBD/DOH METAR and TAF weather

Enter ICAO airport designator
Station Type Date Time Source
OTBD METAR 2020/07/03 12:30 UTC NOAA

OTBD 031230Z AUTO 01012KT CAVOK 39/20 Q0997 NOSIG


Station Type Date Time Source
OTBD Decoded METAR 2020/07/03 12:30 UTC NOAA

Doha International Airport, Qatar (OTBD) 25-15N 051-34E 10M
Jul 03, 2020 - 08:30 AM EDT / 2020.07.03 1230 UTC
Wind: from the N (010 degrees) at 14 MPH (12 KT):0
Visibility: greater than 7 mile(s):0
Temperature: 102 F (39 C)
Heat index: 108.0 F (42.2 C):1
Dew Point: 68 F (20 C)
Relative Humidity: 33%
Pressure (altimeter): 29.44 in. Hg (0997 hPa)
ob: OTBD 031230Z AUTO 01012KT CAVOK 39/20 Q0997 NOSIG
cycle: 12

Station Type Date Time Source
OTBD TAF 2020/07/03 12:06 UTC NOAA

TAF OTBD 031059Z 0312/0418 36012KT CAVOK
BECMG 0410/0412 35015G23KT 8000 NSC

Example: see airport list